createdAt,value
2018-05-27T00:00:34.439Z,0.00
2018-05-27T00:01:34.437Z,0.00
2018-05-27T00:02:34.421Z,0.00
2018-05-27T00:03:34.416Z,0.00
2018-05-27T00:04:34.543Z,0.00
2018-05-27T00:05:34.387Z,0.00
2018-05-27T00:06:34.370Z,0.00
2018-05-27T00:07:34.374Z,0.00
2018-05-27T00:08:34.344Z,0.00
2018-05-27T00:09:34.337Z,0.00
2018-05-27T00:10:34.328Z,0.00
2018-05-27T00:11:34.313Z,0.00
2018-05-27T00:12:34.309Z,0.00
2018-05-27T00:13:34.303Z,0.00
2018-05-27T00:14:34.281Z,0.00
2018-05-27T00:15:34.267Z,0.00
2018-05-27T00:16:34.261Z,0.00
2018-05-27T00:17:34.242Z,0.00
2018-05-27T00:18:34.231Z,0.00
2018-05-27T00:19:34.217Z,0.00
2018-05-27T00:20:34.211Z,0.00
2018-05-27T00:21:34.194Z,0.00
2018-05-27T00:22:34.186Z,0.00
2018-05-27T00:23:34.177Z,0.00
2018-05-27T00:24:34.160Z,0.00
2018-05-27T00:25:34.147Z,0.00
2018-05-27T00:26:34.141Z,0.00
2018-05-27T00:27:34.124Z,0.00
2018-05-27T00:28:34.169Z,0.00
2018-05-27T00:29:34.112Z,0.00
2018-05-27T00:30:34.090Z,0.00
2018-05-27T00:31:34.131Z,0.00
2018-05-27T00:32:34.071Z,0.00
2018-05-27T00:33:34.062Z,0.00
2018-05-27T00:34:34.044Z,0.00
2018-05-27T00:35:34.027Z,0.00
2018-05-27T00:36:34.020Z,0.00
2018-05-27T00:37:34.004Z,0.00
2018-05-27T00:38:33.997Z,0.00
2018-05-27T00:39:33.985Z,0.00
2018-05-27T00:40:33.970Z,0.00
2018-05-27T00:41:33.961Z,0.00
2018-05-27T00:42:33.951Z,0.00
2018-05-27T00:43:33.934Z,0.00
2018-05-27T00:44:33.947Z,0.00
2018-05-27T00:45:33.911Z,0.00
2018-05-27T00:46:33.911Z,0.00
2018-05-27T00:47:33.949Z,0.00
2018-05-27T00:48:33.881Z,0.00
2018-05-27T00:49:33.863Z,0.00
2018-05-27T00:50:33.857Z,0.00
2018-05-27T00:51:33.840Z,0.00
2018-05-27T00:52:33.831Z,0.00
2018-05-27T00:53:33.815Z,0.00
2018-05-27T00:54:33.808Z,0.00
2018-05-27T00:55:33.794Z,0.00
2018-05-27T00:56:33.780Z,0.00
2018-05-27T00:57:33.768Z,0.00
2018-05-27T00:58:33.766Z,0.00
2018-05-27T00:59:33.740Z,0.00
2018-05-27T01:00:33.880Z,0.00
2018-05-27T01:01:33.742Z,0.00
2018-05-27T01:02:33.704Z,0.00
2018-05-27T01:03:33.745Z,0.00
2018-05-27T01:04:33.687Z,0.00
2018-05-27T01:05:33.673Z,0.00
2018-05-27T01:06:33.657Z,0.00
2018-05-27T01:07:33.652Z,0.00
2018-05-27T01:08:33.738Z,0.00
2018-05-27T01:09:33.620Z,0.00
2018-05-27T01:10:33.610Z,0.00
2018-05-27T01:11:33.601Z,0.00
2018-05-27T01:12:33.585Z,0.00
2018-05-27T01:13:33.577Z,0.00
2018-05-27T01:14:33.559Z,0.00
2018-05-27T01:15:33.546Z,0.00
2018-05-27T01:16:33.533Z,0.00
2018-05-27T01:17:33.523Z,0.00
2018-05-27T01:18:33.509Z,0.00
2018-05-27T01:19:33.502Z,0.00
2018-05-27T01:20:33.490Z,0.00
2018-05-27T01:21:33.475Z,0.00
2018-05-27T01:22:33.462Z,0.00
2018-05-27T01:23:33.456Z,0.00
2018-05-27T01:24:33.639Z,0.00
2018-05-27T01:25:33.442Z,0.00
2018-05-27T01:26:33.418Z,0.00
2018-05-27T01:27:33.401Z,0.00
2018-05-27T01:28:33.402Z,0.00
2018-05-27T01:29:33.384Z,0.00
2018-05-27T01:30:33.365Z,0.00
2018-05-27T01:31:33.358Z,0.00
2018-05-27T01:32:33.343Z,0.00
2018-05-27T01:33:33.330Z,0.00
2018-05-27T01:34:33.318Z,0.00
2018-05-27T01:35:33.311Z,0.00
2018-05-27T01:36:33.292Z,0.00
2018-05-27T01:37:33.285Z,0.00
2018-05-27T01:38:33.273Z,0.00
2018-05-27T01:39:33.260Z,0.00
2018-05-27T01:40:33.355Z,0.00
2018-05-27T01:41:33.233Z,0.00
2018-05-27T01:42:33.218Z,0.00
2018-05-27T01:43:33.256Z,0.00
2018-05-27T01:44:33.199Z,0.00
2018-05-27T01:45:33.182Z,0.00
2018-05-27T01:46:33.169Z,0.00
2018-05-27T01:47:33.164Z,0.00
2018-05-27T01:48:33.150Z,0.00
2018-05-27T01:49:33.185Z,0.00
2018-05-27T01:50:33.127Z,0.00
2018-05-27T01:51:33.113Z,0.00
2018-05-27T01:52:33.097Z,0.00
2018-05-27T01:53:33.083Z,0.00
2018-05-27T01:54:33.067Z,0.00
2018-05-27T01:55:33.058Z,0.00
2018-05-27T01:56:33.149Z,0.00
2018-05-27T01:57:33.032Z,0.00
2018-05-27T01:58:33.016Z,0.00
2018-05-27T01:59:33.008Z,0.00
2018-05-27T02:00:32.990Z,0.00
2018-05-27T02:01:32.979Z,0.00
2018-05-27T02:02:32.967Z,0.00
2018-05-27T02:03:32.962Z,0.00
2018-05-27T02:04:32.946Z,0.00
2018-05-27T02:05:32.929Z,0.00
2018-05-27T02:06:32.918Z,0.00
2018-05-27T02:07:32.906Z,0.00
2018-05-27T02:08:32.890Z,0.00
2018-05-27T02:09:32.881Z,0.00
2018-05-27T02:10:32.866Z,0.00
2018-05-27T02:11:32.857Z,0.00
2018-05-27T02:12:32.839Z,0.00
2018-05-27T02:13:32.828Z,0.00
2018-05-27T02:14:32.829Z,0.00
2018-05-27T02:15:32.806Z,0.00
2018-05-27T02:16:32.789Z,0.00
2018-05-27T02:17:32.792Z,0.00
2018-05-27T02:18:32.773Z,0.00
2018-05-27T02:19:32.757Z,0.00
2018-05-27T02:20:32.792Z,0.00
2018-05-27T02:21:32.735Z,0.00
2018-05-27T02:22:32.717Z,0.00
2018-05-27T02:23:32.705Z,0.00
2018-05-27T02:24:32.689Z,0.00
2018-05-27T02:25:32.679Z,0.00
2018-05-27T02:26:32.666Z,0.00
2018-05-27T02:27:32.654Z,0.00
2018-05-27T02:28:32.637Z,0.00
2018-05-27T02:29:32.629Z,0.00
2018-05-27T02:30:32.618Z,0.00
2018-05-27T02:31:32.606Z,0.00
2018-05-27T02:32:32.589Z,0.00
2018-05-27T02:33:32.598Z,0.00
2018-05-27T02:34:32.572Z,0.00
2018-05-27T02:35:32.550Z,0.00
2018-05-27T02:36:32.593Z,0.00
2018-05-27T02:37:32.526Z,0.00
2018-05-27T02:38:32.510Z,0.00
2018-05-27T02:39:32.505Z,0.00
2018-05-27T02:40:32.487Z,0.00
2018-05-27T02:41:32.478Z,0.00
2018-05-27T02:42:32.461Z,0.00
2018-05-27T02:43:32.450Z,0.00
2018-05-27T02:44:32.440Z,0.00
2018-05-27T02:45:32.426Z,0.00
2018-05-27T02:46:32.416Z,0.00
2018-05-27T02:47:32.400Z,0.00
2018-05-27T02:48:32.396Z,0.00
2018-05-27T02:49:32.417Z,0.00
2018-05-27T02:50:32.360Z,0.00
2018-05-27T02:51:32.361Z,0.00
2018-05-27T02:52:32.337Z,0.00
2018-05-27T02:53:32.329Z,0.00
2018-05-27T02:54:32.318Z,0.00
2018-05-27T02:55:32.297Z,0.00
2018-05-27T02:56:32.286Z,0.00
2018-05-27T02:57:32.276Z,0.00
2018-05-27T02:58:32.261Z,0.00
2018-05-27T02:59:32.249Z,0.00
2018-05-27T03:00:32.236Z,0.00
2018-05-27T03:01:32.223Z,0.00
2018-05-27T03:02:32.212Z,0.00
2018-05-27T03:03:32.203Z,0.00
2018-05-27T03:04:32.187Z,0.00
2018-05-27T03:05:32.175Z,0.00
2018-05-27T03:06:32.164Z,0.00
2018-05-27T03:07:32.148Z,0.00
2018-05-27T03:08:32.140Z,0.00
2018-05-27T03:09:32.123Z,0.00
2018-05-27T03:10:32.238Z,0.00
2018-05-27T03:11:32.099Z,0.00
2018-05-27T03:12:32.084Z,0.00
2018-05-27T03:13:32.072Z,0.00
2018-05-27T03:14:32.062Z,0.00
2018-05-27T03:15:32.053Z,0.00
2018-05-27T03:16:32.037Z,0.00
2018-05-27T03:17:32.021Z,0.00
2018-05-27T03:18:32.011Z,0.00
2018-05-27T03:19:32.003Z,0.00
2018-05-27T03:20:31.981Z,0.00
2018-05-27T03:21:31.970Z,0.00
2018-05-27T03:22:31.960Z,0.00
2018-05-27T03:23:31.949Z,0.00
2018-05-27T03:24:31.931Z,0.00
2018-05-27T03:25:31.924Z,0.00
2018-05-27T03:26:31.905Z,0.00
2018-05-27T03:27:31.890Z,0.00
2018-05-27T03:28:31.879Z,0.00
2018-05-27T03:29:31.973Z,0.00
2018-05-27T03:30:31.852Z,0.00
2018-05-27T03:31:31.842Z,0.00
2018-05-27T03:32:31.878Z,0.00
2018-05-27T03:33:31.814Z,0.00
2018-05-27T03:34:31.801Z,0.00
2018-05-27T03:35:31.791Z,0.00
2018-05-27T03:36:31.775Z,0.00
2018-05-27T03:37:31.767Z,0.00
2018-05-27T03:38:31.751Z,0.00
2018-05-27T03:39:31.737Z,0.00
2018-05-27T03:40:31.727Z,0.00
2018-05-27T03:41:31.711Z,0.00
2018-05-27T03:42:31.699Z,0.00
2018-05-27T03:43:31.695Z,0.00
2018-05-27T03:44:31.681Z,0.00
2018-05-27T03:45:31.664Z,0.00
2018-05-27T03:46:31.648Z,0.00
2018-05-27T03:47:31.634Z,0.00
2018-05-27T03:48:31.675Z,0.00
2018-05-27T03:49:31.613Z,0.00
2018-05-27T03:50:31.601Z,0.00
2018-05-27T03:51:31.583Z,0.00
2018-05-27T03:52:31.577Z,0.00
2018-05-27T03:53:31.562Z,0.00
2018-05-27T03:54:31.546Z,0.00
2018-05-27T03:55:31.531Z,0.00
2018-05-27T03:56:31.522Z,0.00
2018-05-27T03:57:31.507Z,0.00
2018-05-27T03:58:31.490Z,0.00
2018-05-27T03:59:31.481Z,0.00
2018-05-27T04:00:31.471Z,0.00
2018-05-27T04:01:31.457Z,0.00
2018-05-27T04:02:31.445Z,0.00
2018-05-27T04:03:31.432Z,0.00
2018-05-27T04:04:31.416Z,0.00
2018-05-27T04:05:31.413Z,0.00
2018-05-27T04:06:31.391Z,0.00
2018-05-27T04:07:31.378Z,0.00
2018-05-27T04:08:31.372Z,0.00
2018-05-27T04:09:31.407Z,0.00
2018-05-27T04:10:31.339Z,0.00
2018-05-27T04:11:31.325Z,0.00
2018-05-27T04:12:31.311Z,0.00
2018-05-27T04:13:31.298Z,0.00
2018-05-27T04:14:31.285Z,0.00
2018-05-27T04:15:31.271Z,0.00
2018-05-27T04:16:31.260Z,0.00
2018-05-27T04:17:31.244Z,0.00
2018-05-27T04:18:31.237Z,0.00
2018-05-27T04:19:31.230Z,0.00
2018-05-27T04:20:31.204Z,0.00
2018-05-27T04:21:31.194Z,0.00
2018-05-27T04:22:31.182Z,0.00
2018-05-27T04:23:31.171Z,0.00
2018-05-27T04:24:31.159Z,0.00
2018-05-27T04:25:31.148Z,0.00
2018-05-27T04:26:31.131Z,0.00
2018-05-27T04:27:31.115Z,0.00
2018-05-27T04:28:31.243Z,0.00
2018-05-27T04:29:31.091Z,5.63
2018-05-27T04:30:31.076Z,0.00
2018-05-27T04:31:31.062Z,5.63
2018-05-27T04:32:31.048Z,5.63
2018-05-27T04:33:31.040Z,5.63
2018-05-27T04:34:31.031Z,5.63
2018-05-27T04:35:31.014Z,5.63
2018-05-27T04:36:31.042Z,5.63
2018-05-27T04:37:30.986Z,5.63
2018-05-27T04:38:30.974Z,5.63
2018-05-27T04:39:30.960Z,5.63
2018-05-27T04:40:30.947Z,5.63
2018-05-27T04:41:30.937Z,5.63
2018-05-27T04:42:30.919Z,5.63
2018-05-27T04:43:30.909Z,5.63
2018-05-27T04:44:30.944Z,5.63
2018-05-27T04:45:30.898Z,5.63
2018-05-27T04:46:30.866Z,5.63
2018-05-27T04:47:30.858Z,5.63
2018-05-27T04:48:30.838Z,5.63
2018-05-27T04:49:30.843Z,5.63
2018-05-27T04:50:30.815Z,5.63
2018-05-27T04:51:30.802Z,5.63
2018-05-27T04:52:30.838Z,5.63
2018-05-27T04:53:30.776Z,5.63
2018-05-27T04:54:30.762Z,5.63
2018-05-27T04:55:30.747Z,5.63
2018-05-27T04:56:30.733Z,5.63
2018-05-27T04:57:30.720Z,5.63
2018-05-27T04:58:30.710Z,5.63
2018-05-27T04:59:30.701Z,5.63
2018-05-27T05:00:30.681Z,5.63
2018-05-27T05:01:30.669Z,5.63
2018-05-27T05:02:30.656Z,5.63
2018-05-27T05:03:30.645Z,5.63
2018-05-27T05:04:30.627Z,5.63
2018-05-27T05:05:30.624Z,5.63
2018-05-27T05:06:30.600Z,5.63
2018-05-27T05:07:30.588Z,5.63
2018-05-27T05:08:30.634Z,5.63
2018-05-27T05:09:30.596Z,5.63
2018-05-27T05:10:30.550Z,5.63
2018-05-27T05:11:30.536Z,5.63
2018-05-27T05:12:30.523Z,5.63
2018-05-27T05:13:30.508Z,5.63
2018-05-27T05:14:30.491Z,5.63
2018-05-27T05:15:30.480Z,11.25
2018-05-27T05:16:30.476Z,11.25
2018-05-27T05:17:30.461Z,11.25
2018-05-27T05:18:30.442Z,11.25
2018-05-27T05:19:30.427Z,11.25
2018-05-27T05:20:30.420Z,11.25
2018-05-27T05:21:30.909Z,11.25
2018-05-27T05:22:30.387Z,11.25
2018-05-27T05:23:30.391Z,11.25
2018-05-27T05:24:30.384Z,11.25
2018-05-27T05:25:30.352Z,11.25
2018-05-27T05:26:30.335Z,11.25
2018-05-27T05:27:30.325Z,11.25
2018-05-27T05:28:30.318Z,11.25
2018-05-27T05:29:30.298Z,11.25
2018-05-27T05:30:30.290Z,11.25
2018-05-27T05:31:30.273Z,11.25
2018-05-27T05:32:30.259Z,11.25
2018-05-27T05:33:30.254Z,11.25
2018-05-27T05:34:30.235Z,11.25
2018-05-27T05:35:30.216Z,11.25
2018-05-27T05:36:30.202Z,11.25
2018-05-27T05:37:30.191Z,11.25
2018-05-27T05:38:30.177Z,11.25
2018-05-27T05:39:30.167Z,11.25
2018-05-27T05:40:30.151Z,11.25
2018-05-27T05:41:30.137Z,11.25
2018-05-27T05:42:30.129Z,11.25
2018-05-27T05:43:30.113Z,11.25
2018-05-27T05:44:30.098Z,11.25
2018-05-27T05:45:30.099Z,11.25
2018-05-27T05:46:30.073Z,11.25
2018-05-27T05:47:30.061Z,11.25
2018-05-27T05:48:30.050Z,11.25
2018-05-27T05:49:30.034Z,11.25
2018-05-27T05:50:30.021Z,11.25
2018-05-27T05:51:30.012Z,11.25
2018-05-27T05:52:29.996Z,11.25
2018-05-27T05:53:29.981Z,11.25
2018-05-27T05:54:30.018Z,16.88
2018-05-27T05:55:29.962Z,16.88
2018-05-27T05:56:29.948Z,16.88
2018-05-27T05:57:29.932Z,16.88
2018-05-27T05:58:29.921Z,16.88
2018-05-27T05:59:29.907Z,16.88
2018-05-27T06:00:29.896Z,16.88
2018-05-27T06:01:29.881Z,16.88
2018-05-27T06:02:29.869Z,16.88
2018-05-27T06:03:29.866Z,16.88
2018-05-27T06:04:29.856Z,16.88
2018-05-27T06:05:29.829Z,16.88
2018-05-27T06:06:29.812Z,16.88
2018-05-27T06:07:29.806Z,16.88
2018-05-27T06:08:29.794Z,16.88
2018-05-27T06:09:29.775Z,16.88
2018-05-27T06:10:29.762Z,16.88
2018-05-27T06:11:29.751Z,16.88
2018-05-27T06:12:29.736Z,16.88
2018-05-27T06:13:29.759Z,16.88
2018-05-27T06:14:29.711Z,16.88
2018-05-27T06:15:29.700Z,16.88
2018-05-27T06:16:29.692Z,16.88
2018-05-27T06:17:29.672Z,16.88
2018-05-27T06:18:29.663Z,16.88
2018-05-27T06:19:29.646Z,16.88
2018-05-27T06:20:29.682Z,16.88
2018-05-27T06:21:29.624Z,16.88
2018-05-27T06:22:29.612Z,16.88
2018-05-27T06:23:29.593Z,16.88
2018-05-27T06:24:29.584Z,16.88
2018-05-27T06:25:29.569Z,16.88
2018-05-27T06:26:29.562Z,16.88
2018-05-27T06:27:29.544Z,16.88
2018-05-27T06:28:29.531Z,22.50
2018-05-27T06:29:29.521Z,22.50
2018-05-27T06:30:29.502Z,22.50
2018-05-27T06:31:29.494Z,22.50
2018-05-27T06:32:29.477Z,22.50
2018-05-27T06:33:29.466Z,22.50
2018-05-27T06:34:29.451Z,22.50
2018-05-27T06:35:29.445Z,22.50
2018-05-27T06:36:29.424Z,22.50
2018-05-27T06:37:29.413Z,22.50
2018-05-27T06:38:29.404Z,22.50
2018-05-27T06:39:29.386Z,22.50
2018-05-27T06:40:29.381Z,22.50
2018-05-27T06:41:29.516Z,22.50
2018-05-27T06:42:29.352Z,22.50
2018-05-27T06:43:29.337Z,22.50
2018-05-27T06:44:29.322Z,22.50
2018-05-27T06:45:29.312Z,22.50
2018-05-27T06:46:29.307Z,22.50
2018-05-27T06:47:29.292Z,22.50
2018-05-27T06:48:29.288Z,22.50
2018-05-27T06:49:29.263Z,22.50
2018-05-27T06:50:29.247Z,22.50
2018-05-27T06:51:29.239Z,22.50
2018-05-27T06:52:29.220Z,22.50
2018-05-27T06:53:29.208Z,22.50
2018-05-27T06:54:29.195Z,22.50
2018-05-27T06:55:29.188Z,22.50
2018-05-27T06:56:29.171Z,22.50
2018-05-27T06:57:29.163Z,22.50
2018-05-27T06:58:29.149Z,22.50
2018-05-27T06:59:29.132Z,22.50
2018-05-27T07:00:29.148Z,22.50
2018-05-27T07:01:29.117Z,22.50
2018-05-27T07:02:29.099Z,22.50
2018-05-27T07:03:29.104Z,22.50
2018-05-27T07:04:29.110Z,22.50
2018-05-27T07:05:29.062Z,22.50
2018-05-27T07:06:29.049Z,28.13
2018-05-27T07:07:29.038Z,28.13
2018-05-27T07:08:29.032Z,28.13
2018-05-27T07:09:29.012Z,28.13
2018-05-27T07:10:29.012Z,28.13
2018-05-27T07:11:28.994Z,28.13
2018-05-27T07:12:28.974Z,28.13
2018-05-27T07:13:28.959Z,28.13
2018-05-27T07:14:28.968Z,28.13
2018-05-27T07:15:28.934Z,28.13
2018-05-27T07:16:28.921Z,33.75
2018-05-27T07:17:28.911Z,33.75
2018-05-27T07:18:28.896Z,33.75
2018-05-27T07:19:28.889Z,33.75
2018-05-27T07:20:28.871Z,33.75
2018-05-27T07:21:28.861Z,33.75
2018-05-27T07:22:28.847Z,33.75
2018-05-27T07:23:28.848Z,39.38
2018-05-27T07:24:28.828Z,39.38
2018-05-27T07:25:28.811Z,39.38
2018-05-27T07:26:28.801Z,39.38
2018-05-27T07:27:28.792Z,39.38
2018-05-27T07:28:28.778Z,39.38
2018-05-27T07:29:28.771Z,39.38
2018-05-27T07:30:28.755Z,39.38
2018-05-27T07:31:28.740Z,45.00
2018-05-27T07:32:28.730Z,45.00
2018-05-27T07:33:28.712Z,45.00
2018-05-27T07:34:28.760Z,45.00
2018-05-27T07:35:28.689Z,50.63
2018-05-27T07:36:28.682Z,50.63
2018-05-27T07:37:28.672Z,50.63
2018-05-27T07:38:28.657Z,50.63
2018-05-27T07:39:28.642Z,50.63
2018-05-27T07:40:28.631Z,50.63
2018-05-27T07:41:28.618Z,50.63
2018-05-27T07:42:28.612Z,56.25
2018-05-27T07:43:28.598Z,56.25
2018-05-27T07:44:28.606Z,56.25
2018-05-27T07:45:28.581Z,56.25
2018-05-27T07:46:28.561Z,56.25
2018-05-27T07:47:28.548Z,56.25
2018-05-27T07:48:28.541Z,56.25
2018-05-27T07:49:28.535Z,56.25
2018-05-27T07:50:28.515Z,56.25
2018-05-27T07:51:28.501Z,56.25
2018-05-27T07:52:28.510Z,56.25
2018-05-27T07:53:28.480Z,61.88
2018-05-27T07:54:28.470Z,61.88
2018-05-27T07:55:28.459Z,61.88
2018-05-27T07:56:28.447Z,61.88
2018-05-27T07:57:28.435Z,61.88
2018-05-27T07:58:28.559Z,61.88
2018-05-27T07:59:28.414Z,61.88
2018-05-27T08:00:28.400Z,67.50
2018-05-27T08:01:28.388Z,67.50
2018-05-27T08:02:28.385Z,67.50
2018-05-27T08:03:28.377Z,67.50
2018-05-27T08:04:28.360Z,67.50
2018-05-27T08:05:28.343Z,67.50
2018-05-27T08:06:28.331Z,67.50
2018-05-27T08:07:28.321Z,67.50
2018-05-27T08:08:28.309Z,67.50
2018-05-27T08:09:28.451Z,67.50
2018-05-27T08:10:28.287Z,67.50
2018-05-27T08:11:28.286Z,67.50
2018-05-27T08:12:28.322Z,67.50
2018-05-27T08:13:28.254Z,67.50
2018-05-27T08:14:28.240Z,67.50
2018-05-27T08:15:28.231Z,73.13
2018-05-27T08:16:28.231Z,73.13
2018-05-27T08:17:28.217Z,73.13
2018-05-27T08:18:28.204Z,73.13
2018-05-27T08:19:28.195Z,73.13
2018-05-27T08:20:28.176Z,73.13
2018-05-27T08:21:28.168Z,73.13
2018-05-27T08:22:28.152Z,73.13
2018-05-27T08:23:28.160Z,73.13
2018-05-27T08:24:28.136Z,73.13
2018-05-27T08:25:28.129Z,73.13
2018-05-27T08:26:28.108Z,73.13
2018-05-27T08:27:28.098Z,73.13
2018-05-27T08:28:28.094Z,73.13
2018-05-27T08:29:28.087Z,73.13
2018-05-27T08:30:28.077Z,73.13
2018-05-27T08:31:28.058Z,73.13
2018-05-27T08:32:28.041Z,73.13
2018-05-27T08:33:28.098Z,73.13
2018-05-27T08:34:28.022Z,73.13
2018-05-27T08:35:28.023Z,73.13
2018-05-27T08:36:28.002Z,73.13
2018-05-27T08:37:28.004Z,73.13
2018-05-27T08:38:27.981Z,73.13
2018-05-27T08:39:27.972Z,73.13
2018-05-27T08:40:27.963Z,73.13
2018-05-27T08:41:27.946Z,73.13
2018-05-27T08:42:27.936Z,73.13
2018-05-27T08:43:27.970Z,73.13
2018-05-27T08:44:27.913Z,73.13
2018-05-27T08:45:27.910Z,73.13
2018-05-27T08:46:27.890Z,73.13
2018-05-27T08:47:27.906Z,78.75
2018-05-27T08:48:27.871Z,78.75
2018-05-27T08:49:27.862Z,78.75
2018-05-27T08:50:27.854Z,78.75
2018-05-27T08:51:27.859Z,78.75
2018-05-27T08:52:27.833Z,78.75
2018-05-27T08:53:27.882Z,78.75
2018-05-27T08:54:27.812Z,78.75
2018-05-27T08:55:27.799Z,78.75
2018-05-27T08:56:27.797Z,78.75
2018-05-27T08:57:27.775Z,78.75
2018-05-27T08:58:27.765Z,78.75
2018-05-27T08:59:27.758Z,78.75
2018-05-27T09:00:27.745Z,78.75
2018-05-27T09:01:27.745Z,78.75
2018-05-27T09:02:27.727Z,78.75
2018-05-27T09:03:27.722Z,78.75
2018-05-27T09:04:27.701Z,78.75
2018-05-27T09:05:27.694Z,78.75
2018-05-27T09:06:27.681Z,78.75
2018-05-27T09:07:27.675Z,84.38
2018-05-27T09:08:27.662Z,84.38
2018-05-27T09:09:27.652Z,84.38
2018-05-27T09:10:27.639Z,84.38
2018-05-27T09:11:27.628Z,84.38
2018-05-27T09:12:27.621Z,84.38
2018-05-27T09:13:27.608Z,84.38
2018-05-27T09:14:27.609Z,84.38
2018-05-27T09:15:27.592Z,84.38
2018-05-27T09:16:27.589Z,73.13
2018-05-27T09:17:27.578Z,84.38
2018-05-27T09:18:27.566Z,84.38
2018-05-27T09:19:27.550Z,78.75
2018-05-27T09:20:27.536Z,73.13
2018-05-27T09:21:27.535Z,78.75
2018-05-27T09:22:27.524Z,78.75
2018-05-27T09:23:27.513Z,67.50
2018-05-27T09:24:27.511Z,78.75
2018-05-27T09:25:27.495Z,78.75
2018-05-27T09:26:27.482Z,78.75
2018-05-27T09:27:27.467Z,84.38
2018-05-27T09:28:27.454Z,73.13
2018-05-27T09:29:27.446Z,78.75
2018-05-27T09:30:27.434Z,78.75
2018-05-27T09:31:27.427Z,84.38
2018-05-27T09:32:27.419Z,78.75
2018-05-27T09:33:27.413Z,84.38
2018-05-27T09:34:27.394Z,84.38
2018-05-27T09:35:27.394Z,73.13
2018-05-27T09:36:27.375Z,73.13
2018-05-27T09:37:27.372Z,73.13
2018-05-27T09:38:27.357Z,73.13
2018-05-27T09:39:27.426Z,67.50
2018-05-27T09:40:27.338Z,73.13
2018-05-27T09:41:27.331Z,73.13
2018-05-27T09:42:27.315Z,73.13
2018-05-27T09:43:27.308Z,73.13
2018-05-27T09:44:27.305Z,73.13
2018-05-27T09:45:27.337Z,73.13
2018-05-27T09:46:27.280Z,61.88
2018-05-27T09:47:27.269Z,73.13
2018-05-27T09:48:27.265Z,78.75
2018-05-27T09:49:27.252Z,78.75
2018-05-27T09:50:27.237Z,78.75
2018-05-27T09:51:27.277Z,78.75
2018-05-27T09:52:27.217Z,78.75
2018-05-27T09:53:27.221Z,84.38
2018-05-27T09:54:27.198Z,84.38
2018-05-27T09:55:27.241Z,78.75
2018-05-27T09:56:27.182Z,78.75
2018-05-27T09:57:27.168Z,78.75
2018-05-27T09:58:27.223Z,84.38
2018-05-27T09:59:27.151Z,84.38
2018-05-27T10:00:27.141Z,84.38
2018-05-27T10:01:27.139Z,84.38
2018-05-27T10:02:27.122Z,84.38
2018-05-27T10:03:27.110Z,90.00
2018-05-27T10:04:27.116Z,90.00
2018-05-27T10:05:27.094Z,90.00
2018-05-27T10:06:27.086Z,84.38
2018-05-27T10:07:27.071Z,90.00
2018-05-27T10:08:27.061Z,90.00
2018-05-27T10:09:27.056Z,90.00
2018-05-27T10:10:27.057Z,90.00
2018-05-27T10:11:27.152Z,90.00
2018-05-27T10:12:27.043Z,90.00
2018-05-27T10:13:27.018Z,90.00
2018-05-27T10:14:27.016Z,90.00
2018-05-27T10:15:27.011Z,90.00
2018-05-27T10:16:27.106Z,90.00
2018-05-27T10:17:26.978Z,90.00
2018-05-27T10:18:26.978Z,78.75
2018-05-27T10:19:27.021Z,67.50
2018-05-27T10:20:26.952Z,56.25
2018-05-27T10:21:26.937Z,78.75
2018-05-27T10:22:26.932Z,90.00
2018-05-27T10:23:26.930Z,90.00
2018-05-27T10:24:26.910Z,78.75
2018-05-27T10:25:26.902Z,73.13
2018-05-27T10:26:26.894Z,67.50
2018-05-27T10:27:26.882Z,73.13
2018-05-27T10:28:26.880Z,84.38
2018-05-27T10:29:26.861Z,78.75
2018-05-27T10:30:26.855Z,73.13
2018-05-27T10:31:26.848Z,73.13
2018-05-27T10:32:26.940Z,73.13
2018-05-27T10:33:26.827Z,61.88
2018-05-27T10:34:26.820Z,61.88
2018-05-27T10:35:26.805Z,61.88
2018-05-27T10:36:26.801Z,73.13
2018-05-27T10:37:26.796Z,61.88
2018-05-27T10:38:26.787Z,73.13
2018-05-27T10:39:26.767Z,84.38
2018-05-27T10:40:26.756Z,90.00
2018-05-27T10:41:26.754Z,84.38
2018-05-27T10:42:26.740Z,90.00
2018-05-27T10:43:26.731Z,84.38
2018-05-27T10:44:26.727Z,90.00
2018-05-27T10:45:26.714Z,90.00
2018-05-27T10:46:26.706Z,90.00
2018-05-27T10:47:26.753Z,90.00
2018-05-27T10:48:26.686Z,84.38
2018-05-27T10:49:26.675Z,90.00
2018-05-27T10:50:26.667Z,90.00
2018-05-27T10:51:26.665Z,90.00
2018-05-27T10:52:26.661Z,84.38
2018-05-27T10:53:26.641Z,90.00
2018-05-27T10:54:26.625Z,90.00
2018-05-27T10:55:26.624Z,90.00
2018-05-27T10:56:26.620Z,90.00
2018-05-27T10:57:26.603Z,90.00
2018-05-27T10:58:26.597Z,90.00
2018-05-27T10:59:26.583Z,90.00
2018-05-27T11:00:26.580Z,84.38
2018-05-27T11:01:26.585Z,84.38
2018-05-27T11:02:26.567Z,84.38
2018-05-27T11:03:26.560Z,90.00
2018-05-27T11:04:26.593Z,90.00
2018-05-27T11:05:26.532Z,90.00
2018-05-27T11:06:26.520Z,90.00
2018-05-27T11:07:26.515Z,90.00
2018-05-27T11:08:26.501Z,84.38
2018-05-27T11:09:26.497Z,78.75
2018-05-27T11:10:26.488Z,78.75
2018-05-27T11:11:26.482Z,84.38
2018-05-27T11:12:26.470Z,84.38
2018-05-27T11:13:26.471Z,84.38
2018-05-27T11:14:26.449Z,84.38
2018-05-27T11:15:26.444Z,84.38
2018-05-27T11:16:26.432Z,78.75
2018-05-27T11:17:26.426Z,90.00
2018-05-27T11:18:26.417Z,90.00
2018-05-27T11:19:26.401Z,84.38
2018-05-27T11:20:26.391Z,84.38
2018-05-27T11:21:26.391Z,84.38
2018-05-27T11:22:26.421Z,90.00
2018-05-27T11:23:26.368Z,90.00
2018-05-27T11:24:26.360Z,90.00
2018-05-27T11:25:26.353Z,90.00
2018-05-27T11:26:26.338Z,84.38
2018-05-27T11:27:26.334Z,95.63
2018-05-27T11:28:26.327Z,95.63
2018-05-27T11:29:26.314Z,84.38
2018-05-27T11:30:26.312Z,84.38
2018-05-27T11:31:26.300Z,90.00
2018-05-27T11:32:26.288Z,84.38
2018-05-27T11:33:26.278Z,78.75
2018-05-27T11:34:26.269Z,73.13
2018-05-27T11:35:26.259Z,73.13
2018-05-27T11:36:26.257Z,61.88
2018-05-27T11:37:26.248Z,61.88
2018-05-27T11:38:26.236Z,73.13
2018-05-27T11:39:26.228Z,61.88
2018-05-27T11:40:26.218Z,56.25
2018-05-27T11:41:26.206Z,61.88
2018-05-27T11:42:26.243Z,84.38
2018-05-27T11:43:26.193Z,61.88
2018-05-27T11:44:26.192Z,95.63
2018-05-27T11:45:26.177Z,67.50
2018-05-27T11:46:26.169Z,61.88
2018-05-27T11:47:26.161Z,78.75
2018-05-27T11:48:26.154Z,56.25
2018-05-27T11:49:26.143Z,67.50
2018-05-27T11:50:26.131Z,56.25
2018-05-27T11:51:26.121Z,56.25
2018-05-27T11:52:26.114Z,56.25
2018-05-27T11:53:26.104Z,61.88
2018-05-27T11:54:26.214Z,67.50
2018-05-27T11:55:26.091Z,61.88
2018-05-27T11:56:26.081Z,106.88
2018-05-27T11:57:26.069Z,106.88
2018-05-27T11:58:26.059Z,101.25
2018-05-27T11:59:26.073Z,84.38
2018-05-27T12:00:26.060Z,67.50
2018-05-27T12:01:26.045Z,61.88
2018-05-27T12:02:26.023Z,95.63
2018-05-27T12:03:26.034Z,106.88
2018-05-27T12:04:26.012Z,106.88
2018-05-27T12:05:26.011Z,95.63
2018-05-27T12:06:26.002Z,101.25
2018-05-27T12:07:25.979Z,84.38
2018-05-27T12:08:25.983Z,67.50
2018-05-27T12:09:26.136Z,50.63
2018-05-27T12:10:25.963Z,50.63
2018-05-27T12:11:25.946Z,56.25
2018-05-27T12:12:26.066Z,73.13
2018-05-27T12:13:25.941Z,50.63
2018-05-27T12:14:25.922Z,56.25
2018-05-27T12:15:25.918Z,61.88
2018-05-27T12:16:25.901Z,90.00
2018-05-27T12:17:25.894Z,50.63
2018-05-27T12:18:25.884Z,45.00
2018-05-27T12:19:25.877Z,45.00
2018-05-27T12:20:25.868Z,45.00
2018-05-27T12:21:25.861Z,45.00
2018-05-27T12:22:25.852Z,45.00
2018-05-27T12:23:25.846Z,50.63
2018-05-27T12:24:25.831Z,50.63
2018-05-27T12:25:25.821Z,50.63
2018-05-27T12:26:25.813Z,50.63
2018-05-27T12:27:25.804Z,112.50
2018-05-27T12:28:25.855Z,101.25
2018-05-27T12:29:25.789Z,101.25
2018-05-27T12:30:25.781Z,90.00
2018-05-27T12:31:25.770Z,101.25
2018-05-27T12:32:25.765Z,67.50
2018-05-27T12:33:25.749Z,50.63
2018-05-27T12:34:25.741Z,50.63
2018-05-27T12:35:25.741Z,50.63
2018-05-27T12:36:25.724Z,50.63
2018-05-27T12:37:25.725Z,50.63
2018-05-27T12:38:25.710Z,50.63
2018-05-27T12:39:25.704Z,45.00
2018-05-27T12:40:25.694Z,45.00
2018-05-27T12:41:25.680Z,45.00
2018-05-27T12:42:25.674Z,45.00
2018-05-27T12:43:25.673Z,45.00
2018-05-27T12:44:25.806Z,39.38
2018-05-27T12:45:25.650Z,39.38
2018-05-27T12:46:25.643Z,39.38
2018-05-27T12:47:25.631Z,39.38
2018-05-27T12:48:25.622Z,39.38
2018-05-27T12:49:25.611Z,39.38
2018-05-27T12:50:25.608Z,45.00
2018-05-27T12:51:25.593Z,45.00
2018-05-27T12:52:25.585Z,45.00
2018-05-27T12:53:25.581Z,50.63
2018-05-27T12:54:25.573Z,56.25
2018-05-27T12:55:25.562Z,90.00
2018-05-27T12:56:25.548Z,61.88
2018-05-27T12:57:25.552Z,73.13
2018-05-27T12:58:25.533Z,56.25
2018-05-27T12:59:25.540Z,56.25
2018-05-27T13:00:25.519Z,73.13
2018-05-27T13:01:25.516Z,95.63
2018-05-27T13:02:25.496Z,101.25